Time;durP1;ratioP1;P1;durP2;ratioP2;P2;SDS_P1;SDS_P2;PMS_P1;PMS_P2;Temp;Humidity;BMP_temperature;BMP_pressure;BME280_temperature;BME280_humidity;BME280_pressure;Samples;Min_cycle;Max_cycle;Signal;HPM_P1;HPM_P2
2021/08/04 00:00:50;;;;;;;8.90;4.80;;;22.30;99.90;;;;;;5094571;28;20188;-67
2021/08/04 00:03:16;;;;;;;6.70;5.37;;;22.30;99.90;;;;;;5095850;28;20595;-66
2021/08/04 00:05:41;;;;;;;6.00;5.10;;;22.40;99.90;;;;;;5095827;28;20241;-70
2021/08/04 00:08:07;;;;;;;7.17;6.13;;;22.40;99.90;;;;;;5095724;28;20192;-70
2021/08/04 00:10:33;;;;;;;6.90;5.63;;;22.40;99.90;;;;;;5095591;28;20232;-67
2021/08/04 00:12:58;;;;;;;7.77;6.00;;;22.40;99.90;;;;;;5095686;28;20176;-67
2021/08/04 00:15:24;;;;;;;8.03;5.70;;;22.40;99.90;;;;;;5094624;28;20219;-71
2021/08/04 00:17:50;;;;;;;7.40;6.17;;;22.40;99.90;;;;;;5095716;28;20168;-67
2021/08/04 00:20:16;;;;;;;7.13;5.97;;;22.40;99.90;;;;;;5093862;28;20200;-70
2021/08/04 00:22:42;;;;;;;6.83;5.80;;;22.40;99.90;;;;;;5095543;28;20251;-71
2021/08/04 00:25:08;;;;;;;9.27;6.80;;;22.40;99.90;;;;;;5094006;28;20227;-66
2021/08/04 00:27:35;;;;;;;8.17;6.70;;;22.40;99.90;;;;;;5095459;28;20492;-67
2021/08/04 00:30:00;;;;;;;7.47;6.50;;;22.40;99.90;;;;;;5095589;28;20448;-67
2021/08/04 00:32:26;;;;;;;10.90;6.80;;;22.40;99.90;;;;;;5095405;28;20397;-71
2021/08/04 00:34:51;;;;;;;7.37;6.37;;;22.40;99.90;;;;;;5095180;28;20275;-67
2021/08/04 00:37:17;;;;;;;10.80;6.13;;;22.40;99.90;;;;;;5095229;28;20259;-70
2021/08/04 00:39:44;;;;;;;8.33;5.93;;;22.50;99.90;;;;;;5095511;28;20188;-67
2021/08/04 00:42:09;;;;;;;10.00;6.30;;;22.40;99.90;;;;;;5095216;28;20397;-70
2021/08/04 00:44:35;;;;;;;7.47;6.30;;;22.40;99.90;;;;;;5093907;28;20448;-71
2021/08/04 00:47:01;;;;;;;7.83;6.00;;;22.40;99.90;;;;;;5094972;28;20397;-69
2021/08/04 00:49:27;;;;;;;6.37;5.37;;;22.40;99.90;;;;;;5095214;28;20201;-71
2021/08/04 00:51:52;;;;;;;6.97;5.37;;;22.40;99.90;;;;;;5094889;28;20577;-70
2021/08/04 00:54:18;;;;;;;7.20;5.93;;;22.40;99.90;;;;;;5093675;28;20204;-70
2021/08/04 00:56:44;;;;;;;7.20;6.50;;;22.40;99.90;;;;;;5094864;28;20184;-69
2021/08/04 00:59:13;;;;;;;6.97;5.57;;;22.40;99.90;;;;;;5094759;28;20218;-66
2021/08/04 01:02:01;;;;;;;8.70;6.70;;;22.40;99.90;;;;;;5094736;28;20168;-67
2021/08/04 01:04:43;;;;;;;6.57;5.93;;;22.50;99.90;;;;;;5095047;28;20926;-67
2021/08/04 01:07:31;;;;;;;6.90;6.10;;;22.50;99.90;;;;;;5094737;28;20381;-71
2021/08/04 01:10:12;;;;;;;6.43;5.77;;;22.60;99.90;;;;;;5092938;28;20828;-71
2021/08/04 01:12:46;;;;;;;7.17;5.83;;;22.60;99.90;;;;;;5094655;28;20401;-66
2021/08/04 01:15:13;;;;;;;6.00;5.40;;;22.60;99.90;;;;;;5094943;28;20793;-67
2021/08/04 01:17:44;;;;;;;6.70;5.47;;;22.60;99.90;;;;;;5094498;28;20528;-66
2021/08/04 01:20:18;;;;;;;6.10;5.17;;;22.60;99.90;;;;;;5093388;28;20473;-67
2021/08/04 01:23:06;;;;;;;5.40;4.70;;;22.60;99.90;;;;;;5094486;28;20397;-66
2021/08/04 01:26:08;;;;;;;6.40;5.17;;;22.60;99.90;;;;;;5094831;28;20849;-67
2021/08/04 01:28:43;;;;;;;5.70;5.10;;;22.60;99.90;;;;;;5094332;28;20412;-71
2021/08/04 01:31:12;;;;;;;6.00;5.40;;;22.60;99.90;;;;;;5093494;28;20487;-71
2021/08/04 01:33:42;;;;;;;6.40;5.27;;;22.50;99.90;;;;;;5094026;28;20433;-70
2021/08/04 01:36:09;;;;;;;5.63;4.67;;;22.50;99.90;;;;;;5094239;28;20407;-71
2021/08/04 01:38:37;;;;;;;7.83;5.83;;;22.50;99.90;;;;;;5094196;28;20432;-71
2021/08/04 01:41:04;;;;;;;6.13;5.10;;;22.40;99.90;;;;;;5094045;28;20989;-66
2021/08/04 01:43:30;;;;;;;8.03;6.43;;;22.40;99.90;;;;;;5094028;28;20773;-71
2021/08/04 01:45:58;;;;;;;6.03;5.07;;;22.30;99.90;;;;;;5093939;28;20432;-67
2021/08/04 01:48:25;;;;;;;5.70;5.17;;;22.30;99.90;;;;;;5093969;28;20408;-70
2021/08/04 01:50:59;;;;;;;7.83;5.37;;;22.30;99.90;;;;;;5092395;28;20505;-71
2021/08/04 01:53:26;;;;;;;6.53;5.43;;;22.30;99.90;;;;;;5093932;28;20397;-70
2021/08/04 01:55:51;;;;;;;5.57;5.03;;;22.30;99.90;;;;;;5093698;28;20423;-66
2021/08/04 01:58:17;;;;;;;7.57;6.10;;;22.30;99.90;;;;;;5093824;28;20484;-67
2021/08/04 02:00:43;;;;;;;8.80;6.30;;;22.30;99.90;;;;;;5092434;28;20196;-67
2021/08/04 02:03:08;;;;;;;7.10;6.40;;;22.30;99.90;;;;;;5092441;28;20570;-70
2021/08/04 02:05:34;;;;;;;6.30;5.33;;;22.30;99.90;;;;;;5093639;28;20274;-70
2021/08/04 02:08:17;;;;;;;6.10;5.50;;;22.20;99.90;;;;;;5093628;28;20298;-70
2021/08/04 02:11:05;;;;;;;9.53;5.80;;;22.20;99.90;;;;;;5092231;28;20231;-66
2021/08/04 02:14:02;;;;;;;7.20;6.00;;;22.20;99.90;;;;;;5093742;28;20444;-67
2021/08/04 02:16:38;;;;;;;5.40;4.90;;;22.10;99.90;;;;;;5080119;28;20465;-66
2021/08/04 02:19:22;;;;;;;6.10;5.33;;;22.10;99.90;;;;;;5093680;28;20468;-70
2021/08/04 02:21:58;;;;;;;7.70;5.53;;;22.10;99.90;;;;;;5093611;28;20393;-70
2021/08/04 02:24:25;;;;;;;6.00;5.40;;;22.10;99.90;;;;;;5093785;28;20479;-70
2021/08/04 02:26:54;;;;;;;5.73;5.13;;;22.10;99.90;;;;;;5093370;28;20466;-70
2021/08/04 02:29:22;;;;;;;6.20;5.43;;;22.10;99.90;;;;;;5093564;28;20827;-67
2021/08/04 02:31:48;;;;;;;6.87;5.27;;;22.10;99.90;;;;;;5093260;28;20460;-70
2021/08/04 02:34:15;;;;;;;6.73;5.87;;;22.10;99.90;;;;;;5093488;28;20527;-67
2021/08/04 02:36:41;;;;;;;8.97;6.73;;;22.20;99.90;;;;;;5093362;28;20412;-67
2021/08/04 02:39:07;;;;;;;5.80;5.20;;;22.20;99.90;;;;;;5093389;28;20448;-66
2021/08/04 02:41:33;;;;;;;6.33;5.20;;;22.20;99.90;;;;;;5093290;28;20920;-70
2021/08/04 02:44:02;;;;;;;6.10;5.50;;;22.20;99.90;;;;;;5095113;28;20230;-67
2021/08/04 02:46:29;;;;;;;6.70;5.87;;;22.20;99.90;;;;;;5096422;28;20767;-66
2021/08/04 02:48:56;;;;;;;6.97;5.17;;;22.20;99.90;;;;;;5097172;28;20436;-67
2021/08/04 02:51:23;;;;;;;7.13;6.43;;;22.30;99.90;;;;;;5097303;28;20469;-70
2021/08/04 02:53:56;;;;;;;7.97;5.40;;;22.30;99.90;;;;;;5097302;28;20417;-67
2021/08/04 02:56:22;;;;;;;6.60;6.00;;;22.30;99.90;;;;;;5097241;28;20413;-67
2021/08/04 02:58:48;;;;;;;7.70;5.67;;;22.30;99.90;;;;;;5097163;28;20405;-71
2021/08/04 03:01:13;;;;;;;5.93;5.33;;;22.30;99.90;;;;;;5095833;28;20450;-67
2021/08/04 03:03:39;;;;;;;9.50;8.00;;;22.40;99.90;;;;;;5097103;28;20172;-71
2021/08/04 03:06:04;;;;;;;17.73;11.03;;;22.40;99.90;;;;;;5095764;28;20211;-66
2021/08/04 03:08:30;;;;;;;8.40;5.93;;;22.40;99.90;;;;;;5096997;28;20208;-67
2021/08/04 03:10:56;;;;;;;5.70;5.20;;;22.40;99.90;;;;;;5096690;28;20227;-70
2021/08/04 03:13:21;;;;;;;5.80;5.27;;;22.40;99.90;;;;;;5095650;28;20176;-71
2021/08/04 03:15:47;;;;;;;7.37;5.20;;;22.40;99.90;;;;;;5096805;28;20561;-67
2021/08/04 03:18:13;;;;;;;6.17;5.57;;;22.50;99.90;;;;;;5096746;28;20176;-66
2021/08/04 03:20:38;;;;;;;7.60;5.97;;;22.50;99.90;;;;;;5096700;28;20721;-70
2021/08/04 03:23:04;;;;;;;7.57;6.10;;;22.50;99.90;;;;;;5096679;28;20526;-67
2021/08/04 03:25:29;;;;;;;6.27;5.67;;;22.50;99.90;;;;;;5097137;28;20291;-67
2021/08/04 03:27:55;;;;;;;6.20;5.50;;;22.40;99.90;;;;;;5096557;28;20214;-71
2021/08/04 03:30:20;;;;;;;7.07;6.20;;;22.50;99.90;;;;;;5095148;28;20220;-66
2021/08/04 03:32:46;;;;;;;7.80;6.10;;;22.40;99.90;;;;;;5096462;28;20165;-69
2021/08/04 03:35:12;;;;;;;6.50;5.90;;;22.40;99.90;;;;;;5096805;28;20360;-70
2021/08/04 03:37:38;;;;;;;6.60;5.47;;;22.40;99.90;;;;;;5095179;28;20643;-70
2021/08/04 03:40:04;;;;;;;7.77;6.70;;;22.40;99.90;;;;;;5096212;28;20205;-71
2021/08/04 03:42:30;;;;;;;6.07;5.53;;;22.40;99.90;;;;;;5096290;28;20769;-70
2021/08/04 03:44:56;;;;;;;6.13;5.37;;;22.40;99.90;;;;;;5094810;28;20448;-71
2021/08/04 03:47:21;;;;;;;7.03;6.00;;;22.40;99.90;;;;;;5094898;28;20176;-67
2021/08/04 03:49:47;;;;;;;5.63;5.03;;;22.40;99.90;;;;;;5096402;28;20200;-70
2021/08/04 03:52:12;;;;;;;5.67;5.17;;;22.30;99.90;;;;;;5096051;28;20220;-66
2021/08/04 03:54:38;;;;;;;4.73;4.30;;;22.30;99.90;;;;;;5093991;28;20208;-67
2021/08/04 03:57:04;;;;;;;5.43;4.73;;;22.30;99.90;;;;;;5095858;28;20176;-70
2021/08/04 03:59:29;;;;;;;6.07;4.87;;;22.30;99.90;;;;;;5095837;28;20200;-71
2021/08/04 04:01:55;;;;;;;5.93;3.73;;;22.30;99.90;;;;;;5088084;28;20183;-70
2021/08/04 04:04:21;;;;;;;5.87;5.33;;;22.30;99.90;;;;;;5091166;28;20204;-67
2021/08/04 04:06:46;;;;;;;5.53;5.00;;;22.30;99.90;;;;;;5085873;28;20247;-67
2021/08/04 04:09:12;;;;;;;9.03;6.07;;;22.30;99.90;;;;;;5086643;28;20278;-66
2021/08/04 04:11:37;;;;;;;5.27;4.77;;;22.30;99.90;;;;;;5090030;28;20212;-70
2021/08/04 04:14:03;;;;;;;6.40;5.63;;;22.20;99.90;;;;;;5093679;28;20314;-70
2021/08/04 04:16:29;;;;;;;6.70;5.50;;;22.20;99.90;;;;;;5082338;28;20228;-66
2021/08/04 04:18:54;;;;;;;6.80;6.07;;;22.20;99.90;;;;;;5073221;28;20233;-70
2021/08/04 04:21:20;;;;;;;7.07;6.37;;;22.20;99.90;;;;;;5072945;28;20257;-66
2021/08/04 04:23:46;;;;;;;6.70;5.97;;;22.20;99.90;;;;;;5073192;28;20696;-67
2021/08/04 04:26:11;;;;;;;8.10;6.60;;;22.10;99.90;;;;;;5072409;28;20210;-69
2021/08/04 04:28:37;;;;;;;6.97;5.50;;;22.10;99.90;;;;;;5093613;28;20191;-66
2021/08/04 04:31:02;;;;;;;8.47;6.00;;;22.00;99.90;;;;;;5095129;28;20207;-70
2021/08/04 04:33:28;;;;;;;6.47;5.57;;;22.00;99.90;;;;;;5093176;28;20708;-71
2021/08/04 04:35:55;;;;;;;8.23;7.17;;;21.90;99.90;;;;;;5089418;28;20242;-70
2021/08/04 04:38:21;;;;;;;7.63;6.20;;;21.90;99.90;;;;;;5093290;28;20562;-70
2021/08/04 04:40:46;;;;;;;9.00;6.10;;;21.80;99.90;;;;;;5094113;28;20562;-66
2021/08/04 04:43:12;;;;;;;6.07;5.40;;;21.80;99.90;;;;;;5088938;28;20183;-66
2021/08/04 04:45:38;;;;;;;6.43;5.83;;;21.70;99.90;;;;;;5074668;28;20200;-66
2021/08/04 04:48:04;;;;;;;7.33;5.90;;;21.70;99.90;;;;;;5073524;28;20235;-66
2021/08/04 04:50:30;;;;;;;7.23;5.00;;;21.60;99.90;;;;;;5078397;28;20248;-70
2021/08/04 04:52:56;;;;;;;5.97;5.37;;;21.70;99.90;;;;;;5081510;28;20180;-69
2021/08/04 04:55:22;;;;;;;7.97;5.90;;;21.60;99.90;;;;;;5075042;28;20834;-71
2021/08/04 04:57:47;;;;;;;7.43;5.07;;;21.60;99.90;;;;;;5093217;28;20200;-67
2021/08/04 05:00:13;;;;;;;7.20;5.87;;;21.60;99.90;;;;;;5095160;28;20616;-70
2021/08/04 05:02:40;;;;;;;7.20;6.50;;;21.60;99.90;;;;;;5094053;28;20660;-70
2021/08/04 05:05:07;;;;;;;7.30;5.70;;;21.60;99.90;;;;;;5094889;28;20795;-66
2021/08/04 05:07:33;;;;;;;6.00;5.43;;;21.60;99.90;;;;;;5093415;28;20482;-66
2021/08/04 05:09:58;;;;;;;10.20;5.47;;;21.60;99.90;;;;;;5078040;28;20472;-66
2021/08/04 05:12:24;;;;;;;8.40;5.90;;;21.60;99.90;;;;;;5083713;28;20432;-71
2021/08/04 05:14:50;;;;;;;7.07;6.37;;;21.70;99.90;;;;;;5085077;28;20213;-67
2021/08/04 05:17:15;;;;;;;6.93;6.17;;;21.70;99.90;;;;;;5082674;28;20269;-70
2021/08/04 05:19:41;;;;;;;6.50;4.73;;;21.70;99.90;;;;;;5082907;28;20204;-66
2021/08/04 05:22:07;;;;;;;9.10;5.90;;;21.80;99.90;;;;;;5091329;28;20267;-71
2021/08/04 05:24:33;;;;;;;5.87;4.93;;;21.80;99.90;;;;;;5077436;28;20915;-67
2021/08/04 05:26:58;;;;;;;7.43;5.67;;;21.90;99.90;;;;;;5081238;28;20517;-67
2021/08/04 05:29:24;;;;;;;5.67;5.10;;;21.90;99.90;;;;;;5073185;28;20208;-71
2021/08/04 05:31:50;;;;;;;5.67;4.87;;;22.00;99.90;;;;;;5071825;28;20200;-67
2021/08/04 05:34:17;;;;;;;5.80;5.20;;;22.10;99.90;;;;;;5071618;28;20239;-67
2021/08/04 05:36:43;;;;;;;6.43;5.10;;;22.10;99.90;;;;;;5072457;28;20184;-71
2021/08/04 05:39:08;;;;;;;6.17;4.83;;;22.20;99.90;;;;;;5071456;28;20458;-71
2021/08/04 05:41:34;;;;;;;6.63;5.03;;;22.20;99.90;;;;;;5071492;28;20409;-67
2021/08/04 05:44:00;;;;;;;5.77;5.20;;;22.30;99.90;;;;;;5072647;28;20210;-71
2021/08/04 05:46:25;;;;;;;5.20;4.70;;;22.40;99.90;;;;;;5081910;28;20169;-67
2021/08/04 05:48:51;;;;;;;4.47;4.13;;;22.40;99.90;;;;;;5088146;28;20196;-71
2021/08/04 05:51:16;;;;;;;5.30;4.70;;;22.40;99.90;;;;;;5084858;28;20204;-67
2021/08/04 05:53:42;;;;;;;7.00;5.20;;;22.40;99.90;;;;;;5088475;28;20199;-66
2021/08/04 05:56:07;;;;;;;4.90;4.10;;;22.40;99.90;;;;;;5098324;28;20186;-67
2021/08/04 05:58:33;;;;;;;6.77;4.70;;;22.40;99.90;;;;;;5099405;28;20204;-71
2021/08/04 06:00:59;;;;;;;7.30;4.73;;;22.40;99.90;;;;;;5114880;27;20208;-70
2021/08/04 06:03:24;;;;;;;5.67;4.20;;;22.50;99.90;;;;;;5109075;27;20188;-68
2021/08/04 06:05:50;;;;;;;6.90;4.90;;;22.60;99.90;;;;;;5099614;28;20192;-71
2021/08/04 06:08:15;;;;;;;6.00;5.10;;;22.60;99.90;;;;;;5110172;27;20581;-66
2021/08/04 06:10:41;;;;;;;8.97;4.87;;;22.60;99.90;;;;;;5092239;28;20323;-67
2021/08/04 06:13:07;;;;;;;4.93;4.53;;;22.70;99.90;;;;;;5091802;28;20202;-67
2021/08/04 06:15:33;;;;;;;4.40;4.00;;;22.80;99.90;;;;;;5089208;28;20681;-70
2021/08/04 06:17:58;;;;;;;5.43;4.43;;;22.80;99.90;;;;;;5081223;28;20184;-70
2021/08/04 06:20:24;;;;;;;7.07;5.43;;;22.90;99.90;;;;;;5084543;28;20709;-71
2021/08/04 06:22:49;;;;;;;4.50;3.90;;;23.00;99.90;;;;;;5087126;28;20172;-70
2021/08/04 06:25:15;;;;;;;5.47;4.53;;;23.10;99.90;;;;;;5077548;28;20634;-66
2021/08/04 06:27:41;;;;;;;5.30;4.47;;;23.10;99.90;;;;;;5078720;28;20204;-71
2021/08/04 06:30:07;;;;;;;7.03;4.83;;;23.10;99.90;;;;;;5090686;28;20295;-66
2021/08/04 06:32:33;;;;;;;5.30;4.77;;;23.10;99.90;;;;;;5088933;28;20184;-70
2021/08/04 06:34:58;;;;;;;8.77;4.53;;;23.20;99.90;;;;;;5100028;28;20995;-70
2021/08/04 06:37:24;;;;;;;4.43;4.00;;;23.10;99.90;;;;;;5107981;28;20176;-67
2021/08/04 06:39:49;;;;;;;4.30;3.60;;;23.20;99.90;;;;;;5086419;28;20258;-66
2021/08/04 06:42:15;;;;;;;5.10;4.60;;;23.20;99.90;;;;;;5076605;28;20188;-67
2021/08/04 06:44:41;;;;;;;4.00;3.60;;;23.20;99.90;;;;;;5084795;28;20231;-69
2021/08/04 06:47:07;;;;;;;6.27;4.67;;;23.20;99.90;;;;;;5095205;28;20402;-71
2021/08/04 06:49:33;;;;;;;5.20;3.23;;;23.30;99.90;;;;;;5086164;28;20449;-71
2021/08/04 06:51:58;;;;;;;3.63;3.33;;;23.30;99.90;;;;;;5091750;28;20204;-67
2021/08/04 06:54:25;;;;;;;3.80;3.00;;;23.30;99.90;;;;;;5088315;28;20204;-70
2021/08/04 06:56:53;;;;;;;3.60;3.30;;;23.40;99.90;;;;;;5088798;28;20191;-70
2021/08/04 06:59:19;;;;;;;3.17;2.90;;;23.40;99.90;;;;;;5092520;28;20965;-66
2021/08/04 07:01:45;;;;;;;4.73;3.97;;;23.50;99.90;;;;;;5086279;28;20426;-71
2021/08/04 07:04:12;;;;;;;3.13;2.70;;;23.50;99.90;;;;;;5085879;28;20724;-67
2021/08/04 07:06:38;;;;;;;3.67;3.20;;;23.50;99.90;;;;;;5097747;28;20172;-71
2021/08/04 07:09:03;;;;;;;4.00;3.50;;;23.50;99.90;;;;;;5079879;28;21029;-71
2021/08/04 07:11:29;;;;;;;6.00;3.00;;;23.60;99.90;;;;;;5080138;28;20208;-71
2021/08/04 07:13:55;;;;;;;4.53;4.10;;;23.60;99.90;;;;;;5084327;28;20219;-71
2021/08/04 07:16:21;;;;;;;3.27;2.97;;;23.70;99.90;;;;;;5078340;28;20253;-71
2021/08/04 07:18:46;;;;;;;2.90;2.70;;;23.70;99.90;;;;;;5086535;28;20905;-67
2021/08/04 07:21:13;;;;;;;3.70;2.83;;;23.90;99.90;;;;;;5081339;28;20433;-67
2021/08/04 07:23:40;;;;;;;3.27;2.67;;;23.90;99.90;;;;;;5078103;28;20207;-70
2021/08/04 07:26:06;;;;;;;2.87;2.57;;;24.00;99.90;;;;;;5082374;28;20401;-67
2021/08/04 07:28:31;;;;;;;3.60;3.20;;;24.10;99.90;;;;;;5079837;28;20438;-71
2021/08/04 07:30:57;;;;;;;3.50;3.10;;;24.20;99.90;;;;;;5087216;28;20827;-67
2021/08/04 07:33:23;;;;;;;3.50;2.87;;;24.20;99.90;;;;;;5091055;28;20175;-67
2021/08/04 07:35:48;;;;;;;3.17;2.43;;;24.30;99.90;;;;;;5088852;28;20613;-66
2021/08/04 07:38:14;;;;;;;3.10;2.87;;;24.30;99.90;;;;;;5095487;28;20240;-70
2021/08/04 07:40:40;;;;;;;2.50;2.20;;;24.40;99.90;;;;;;5092606;28;20194;-70
2021/08/04 07:43:05;;;;;;;3.57;3.20;;;24.50;99.90;;;;;;5097383;28;20178;-70
2021/08/04 07:45:31;;;;;;;2.93;2.67;;;24.60;99.90;;;;;;5085914;28;20229;-66
2021/08/04 07:47:56;;;;;;;3.40;3.10;;;24.60;99.90;;;;;;5099726;27;20183;-70
2021/08/04 07:50:22;;;;;;;2.87;2.67;;;24.70;99.90;;;;;;5097713;28;20252;-66
2021/08/04 07:52:48;;;;;;;3.13;2.80;;;24.70;99.90;;;;;;5095447;28;20173;-66
2021/08/04 07:55:16;;;;;;;3.10;2.80;;;24.80;99.90;;;;;;5089842;28;20654;-70
2021/08/04 07:57:41;;;;;;;3.53;3.00;;;24.90;99.90;;;;;;5089659;28;20184;-66
2021/08/04 08:00:08;;;;;;;4.93;3.10;;;24.90;99.90;;;;;;5085646;28;20461;-66
2021/08/04 08:02:33;;;;;;;2.90;2.70;;;25.00;99.90;;;;;;5081493;28;20246;-70
2021/08/04 08:04:59;;;;;;;3.40;2.97;;;25.00;99.90;;;;;;5089717;28;20557;-70
2021/08/04 08:07:25;;;;;;;3.67;3.37;;;25.00;99.90;;;;;;5093537;28;20176;-69
2021/08/04 08:09:50;;;;;;;3.33;3.03;;;25.00;99.90;;;;;;5111834;27;20241;-66
2021/08/04 08:12:16;;;;;;;8.73;3.60;;;25.10;99.90;;;;;;5084560;28;20259;-70
2021/08/04 08:14:41;;;;;;;2.90;2.70;;;25.20;99.90;;;;;;5082004;28;20508;-66
2021/08/04 08:17:07;;;;;;;4.17;3.50;;;25.30;99.90;;;;;;5080731;28;20544;-66
2021/08/04 08:19:33;;;;;;;2.73;2.53;;;25.30;99.90;;;;;;5082614;28;20215;-66
2021/08/04 08:21:59;;;;;;;7.50;2.90;;;25.40;99.90;;;;;;5080118;28;20219;-66
2021/08/04 08:24:25;;;;;;;3.63;3.23;;;25.40;99.90;;;;;;5085309;28;20347;-67
2021/08/04 08:26:51;;;;;;;4.33;3.33;;;25.50;99.90;;;;;;5084347;28;20895;-70
2021/08/04 08:29:17;;;;;;;6.00;3.23;;;25.50;99.90;;;;;;5075818;28;20661;-70
2021/08/04 08:31:43;;;;;;;4.60;3.87;;;25.60;99.90;;;;;;5079634;28;20464;-69
2021/08/04 08:34:08;;;;;;;4.10;3.70;;;25.60;99.90;;;;;;5086933;28;20267;-66
2021/08/04 08:36:36;;;;;;;3.80;3.37;;;25.70;99.90;;;;;;5085480;28;20426;-70
2021/08/04 08:39:02;;;;;;;3.30;3.00;;;25.80;99.90;;;;;;5089900;28;20230;-66
2021/08/04 08:41:28;;;;;;;3.87;3.57;;;25.90;99.90;;;;;;5089185;28;20504;-70
2021/08/04 08:43:54;;;;;;;3.10;2.90;;;26.00;99.90;;;;;;5086508;28;20463;-66
2021/08/04 08:46:20;;;;;;;2.93;2.73;;;26.10;99.90;;;;;;5086998;28;21492;-70
2021/08/04 08:48:47;;;;;;;3.57;3.23;;;26.20;99.90;;;;;;5087996;28;20177;-69
2021/08/04 08:51:17;;;;;;;3.70;3.40;;;26.20;99.90;;;;;;5089705;28;20471;-66
2021/08/04 08:53:44;;;;;;;4.27;3.87;;;26.40;99.90;;;;;;5088434;28;20455;-70
2021/08/04 08:56:14;;;;;;;3.87;3.43;;;26.40;99.90;;;;;;5090636;28;20445;-70
2021/08/04 08:58:40;;;;;;;3.90;3.50;;;26.50;99.90;;;;;;5092093;28;20443;-70
2021/08/04 09:01:06;;;;;;;3.53;3.23;;;26.60;99.90;;;;;;5089942;28;20405;-70
2021/08/04 09:03:32;;;;;;;3.73;3.43;;;26.70;99.90;;;;;;5087285;28;20481;-70
2021/08/04 09:05:58;;;;;;;4.03;3.60;;;26.70;99.90;;;;;;5092299;28;20424;-66
2021/08/04 09:08:27;;;;;;;4.47;3.50;;;26.80;99.90;;;;;;5091964;28;20260;-70
2021/08/04 09:10:54;;;;;;;5.67;4.27;;;26.90;99.90;;;;;;5085083;28;20778;-70
2021/08/04 09:13:33;;;;;;;3.80;3.50;;;27.00;99.90;;;;;;5084928;28;20425;-66
2021/08/04 09:16:19;;;;;;;4.17;3.80;;;27.10;99.90;;;;;;5092198;28;20512;-66
2021/08/04 09:18:47;;;;;;;5.57;4.40;;;27.10;99.90;;;;;;5094915;28;20478;-66
2021/08/04 09:21:16;;;;;;;4.00;3.70;;;27.20;99.90;;;;;;5091450;28;20508;-66
2021/08/04 09:23:43;;;;;;;3.93;3.63;;;27.30;99.90;;;;;;5091277;28;20447;-66
2021/08/04 09:26:14;;;;;;;4.90;3.53;;;27.40;99.90;;;;;;5091931;28;20423;-70
2021/08/04 09:28:53;;;;;;;5.70;4.20;;;27.50;99.90;;;;;;5104509;27;20436;-67
2021/08/04 09:31:19;;;;;;;3.70;3.40;;;27.60;99.90;;;;;;5086613;28;20493;-71
2021/08/04 09:33:46;;;;;;;5.20;3.90;;;27.70;99.90;;;;;;5084321;28;20880;-70
2021/08/04 09:36:17;;;;;;;5.00;4.17;;;27.80;99.90;;;;;;5088084;28;20429;-67
2021/08/04 09:39:01;;;;;;;4.30;4.00;;;27.80;99.90;;;;;;5090348;28;20791;-66
2021/08/04 09:41:26;;;;;;;5.47;4.63;;;27.80;99.90;;;;;;5090402;28;20409;-71
2021/08/04 09:44:03;;;;;;;4.70;4.20;;;27.90;99.90;;;;;;5094504;28;21004;-66
2021/08/04 09:46:29;;;;;;;4.43;4.00;;;27.90;99.90;;;;;;5089593;28;20203;-66
2021/08/04 09:49:15;;;;;;;3.67;3.37;;;27.90;99.90;;;;;;5091027;28;20437;-66
2021/08/04 09:51:41;;;;;;;4.00;3.70;;;28.00;99.90;;;;;;5087176;28;20620;-66
2021/08/04 09:54:14;;;;;;;4.40;3.63;;;28.10;99.90;;;;;;5090784;28;20488;-69
2021/08/04 09:56:53;;;;;;;3.60;3.30;;;28.10;99.90;;;;;;5085134;28;20169;-71
2021/08/04 09:59:23;;;;;;;3.93;3.63;;;28.10;99.90;;;;;;5086211;28;20457;-66
2021/08/04 10:01:49;;;;;;;3.90;3.60;;;28.10;99.90;;;;;;5083810;28;20519;-66
2021/08/04 10:04:15;;;;;;;4.13;3.73;;;28.20;99.90;;;;;;5082649;28;21040;-66
2021/08/04 10:06:42;;;;;;;4.30;4.00;;;28.30;99.90;;;;;;5081788;28;20622;-67
2021/08/04 10:09:13;;;;;;;4.30;3.30;;;28.30;99.90;;;;;;5084419;28;20911;-67
2021/08/04 10:11:43;;;;;;;3.93;3.60;;;28.40;99.90;;;;;;5088201;28;21089;-67
2021/08/04 10:14:10;;;;;;;4.10;3.50;;;28.40;99.90;;;;;;5087107;28;20465;-66
2021/08/04 10:16:36;;;;;;;3.63;3.40;;;28.40;99.90;;;;;;5088140;28;20804;-68
2021/08/04 10:19:04;;;;;;;3.63;3.37;;;28.50;99.90;;;;;;5086527;28;20781;-71
2021/08/04 10:21:33;;;;;;;5.10;3.77;;;28.50;99.90;;;;;;5088959;28;20837;-71
2021/08/04 10:24:00;;;;;;;4.00;3.47;;;28.60;99.90;;;;;;5088288;28;20434;-67
2021/08/04 10:26:26;;;;;;;3.40;3.10;;;28.70;99.90;;;;;;5089879;28;20417;-72
2021/08/04 10:28:55;;;;;;;3.40;3.10;;;28.80;99.90;;;;;;5092245;28;20445;-72
2021/08/04 10:31:21;;;;;;;3.90;3.60;;;28.80;99.90;;;;;;5091842;28;20460;-67
2021/08/04 10:33:47;;;;;;;3.97;3.67;;;28.80;99.90;;;;;;5091740;28;20423;-72
2021/08/04 10:36:16;;;;;;;4.37;3.97;;;28.90;99.90;;;;;;5090717;28;20405;-71
2021/08/04 10:38:54;;;;;;;3.80;3.50;;;28.90;99.90;;;;;;5087874;28;20528;-67
2021/08/04 10:41:21;;;;;;;4.47;3.50;;;29.00;99.90;;;;;;5088219;28;20384;-71
2021/08/04 10:43:56;;;;;;;3.80;3.50;;;29.10;99.90;;;;;;5093357;28;20926;-71
2021/08/04 10:46:34;;;;;;;3.93;3.63;;;29.10;99.90;;;;;;5086187;28;20800;-67
2021/08/04 10:49:05;;;;;;;3.67;3.37;;;29.20;99.90;;;;;;5090076;28;20449;-72
2021/08/04 10:51:35;;;;;;;4.63;4.23;;;29.20;99.90;;;;;;5091381;28;20507;-66
2021/08/04 10:54:01;;;;;;;3.53;3.23;;;29.30;99.90;;;;;;5092250;28;20463;-66
2021/08/04 10:56:32;;;;;;;4.17;3.83;;;29.30;99.90;;;;;;5090430;28;20431;-65
2021/08/04 10:59:10;;;;;;;4.40;4.00;;;29.30;99.90;;;;;;5082679;28;20197;-67
2021/08/04 11:01:50;;;;;;;3.83;3.53;;;29.40;99.90;;;;;;5084897;28;20448;-72
2021/08/04 11:04:45;;;;;;;4.20;3.73;;;29.40;99.90;;;;;;5082380;28;20546;-71
2021/08/04 11:07:19;;;;;;;3.77;3.47;;;29.50;99.90;;;;;;5086911;28;20425;-73
2021/08/04 11:09:51;;;;;;;4.20;3.70;;;29.60;99.90;;;;;;5080951;28;20528;-72
2021/08/04 11:12:18;;;;;;;3.60;3.30;;;29.70;99.40;;;;;;5089309;28;20457;-66
2021/08/04 11:14:56;;;;;;;3.77;3.47;;;29.70;99.00;;;;;;5092863;28;20456;-72
2021/08/04 11:17:29;;;;;;;4.10;3.80;;;29.70;98.90;;;;;;5090048;28;20523;-72
2021/08/04 11:19:58;;;;;;;3.30;3.00;;;29.70;99.40;;;;;;5092030;28;20450;-68
2021/08/04 11:22:25;;;;;;;3.00;2.80;;;29.70;98.80;;;;;;5093619;28;20434;-71
2021/08/04 11:25:00;;;;;;;3.47;2.90;;;29.80;97.50;;;;;;5089279;28;20459;-68
2021/08/04 11:27:35;;;;;;;2.97;2.77;;;29.90;98.00;;;;;;5087827;28;20435;-66
2021/08/04 11:30:01;;;;;;;3.17;2.97;;;29.90;95.50;;;;;;5092550;28;20447;-71
2021/08/04 11:32:27;;;;;;;3.10;2.80;;;30.00;95.30;;;;;;5093249;28;20463;-67
2021/08/04 11:34:54;;;;;;;2.90;2.70;;;30.00;97.60;;;;;;5091383;28;20215;-70
2021/08/04 11:37:21;;;;;;;4.27;3.70;;;30.00;95.20;;;;;;5092503;28;20509;-66
2021/08/04 11:39:56;;;;;;;3.30;3.00;;;30.10;95.70;;;;;;5085765;28;20493;-71
2021/08/04 11:42:23;;;;;;;2.97;2.77;;;30.20;95.00;;;;;;5080945;28;20427;-71
2021/08/04 11:44:50;;;;;;;2.80;2.30;;;30.30;94.70;;;;;;5089637;28;20481;-71
2021/08/04 11:47:16;;;;;;;3.63;2.80;;;30.30;94.20;;;;;;5091128;28;20451;-69
2021/08/04 11:49:42;;;;;;;3.10;2.80;;;30.40;94.50;;;;;;5087521;28;20456;-69
2021/08/04 11:52:12;;;;;;;3.47;2.60;;;30.40;93.80;;;;;;5085458;28;20917;-72
2021/08/04 11:54:44;;;;;;;3.10;2.90;;;30.40;93.60;;;;;;5085765;28;20451;-72
2021/08/04 11:57:12;;;;;;;2.80;2.60;;;30.40;93.70;;;;;;5086834;28;20431;-68
2021/08/04 11:59:49;;;;;;;3.77;3.07;;;30.40;93.30;;;;;;5087197;28;20464;-72
2021/08/04 12:02:15;;;;;;;3.70;2.67;;;30.50;93.20;;;;;;5086818;28;20500;-69
2021/08/04 12:04:47;;;;;;;2.90;2.70;;;30.50;93.50;;;;;;5087125;28;20462;-72
2021/08/04 12:07:13;;;;;;;2.80;2.60;;;30.50;93.00;;;;;;5087187;28;20436;-72
2021/08/04 12:09:39;;;;;;;3.03;2.80;;;30.60;93.10;;;;;;5088245;28;20473;-69
2021/08/04 12:12:12;;;;;;;4.00;3.60;;;30.60;93.60;;;;;;5092389;28;20554;-71
2021/08/04 12:14:38;;;;;;;3.10;2.90;;;30.60;92.90;;;;;;5091933;28;20467;-72
2021/08/04 12:17:04;;;;;;;3.20;2.90;;;30.70;92.70;;;;;;5091951;28;20408;-68
2021/08/04 12:19:32;;;;;;;3.93;2.60;;;30.60;93.90;;;;;;5087815;28;20694;-69
2021/08/04 12:21:59;;;;;;;2.90;2.70;;;30.60;92.50;;;;;;5091565;28;20420;-71
2021/08/04 12:24:26;;;;;;;3.07;2.87;;;30.60;92.10;;;;;;5087468;28;20476;-66
2021/08/04 12:26:53;;;;;;;3.93;2.77;;;30.60;91.90;;;;;;5090297;28;20424;-65
2021/08/04 12:29:25;;;;;;;2.77;2.57;;;30.60;92.70;;;;;;5091586;28;20483;-65
2021/08/04 12:32:32;;;;;;;3.10;2.60;;;30.60;92.90;;;;;;5090714;28;21003;-71
2021/08/04 12:34:59;;;;;;;3.27;2.93;;;30.60;92.50;;;;;;5020880;28;20465;-70
2021/08/04 12:37:27;;;;;;;2.90;2.70;;;30.70;92.10;;;;;;5049850;28;20429;-64
2021/08/04 12:40:02;;;;;;;2.43;2.23;;;30.70;91.40;;;;;;5068589;28;20526;-71
2021/08/04 12:42:28;;;;;;;5.20;2.67;;;30.70;92.00;;;;;;5091156;28;20423;-70
2021/08/04 12:45:31;;;;;;;2.80;2.60;;;30.70;93.10;;;;;;5087726;28;20456;-69
2021/08/04 12:47:59;;;;;;;3.67;3.20;;;30.70;92.20;;;;;;5107327;28;20207;-71
2021/08/04 12:50:48;;;;;;;2.97;2.50;;;30.70;92.90;;;;;;5088181;28;20997;-65